createdAt,value
2022-10-05T00:02:58.123Z,101550.72
2022-10-05T00:06:01.463Z,101549.56
2022-10-05T00:09:14.267Z,101536.31
2022-10-05T00:12:18.813Z,101538.72
2022-10-05T00:15:24.109Z,101560.06
2022-10-05T00:18:28.019Z,101549.81
2022-10-05T00:21:30.941Z,101547.31
2022-10-05T00:24:35.038Z,101550.28
2022-10-05T00:27:38.883Z,101557.94
2022-10-05T00:30:41.959Z,101545.50
2022-10-05T00:33:44.663Z,101543.22
2022-10-05T00:36:47.793Z,101547.31
2022-10-05T00:39:52.103Z,101533.81
2022-10-05T00:43:05.680Z,101520.09
2022-10-05T00:46:16.086Z,101527.97
2022-10-05T00:49:42.595Z,101520.59
2022-10-05T00:52:54.688Z,101518.53
2022-10-05T00:56:04.241Z,101507.31
2022-10-05T00:59:20.124Z,101501.38
2022-10-05T01:02:36.521Z,101516.38
2022-10-05T01:05:52.931Z,101509.94
2022-10-05T01:09:04.863Z,101512.94
2022-10-05T01:12:15.180Z,101506.13
2022-10-05T01:15:26.060Z,101512.69
2022-10-05T01:18:38.794Z,101498.38
2022-10-05T01:21:48.078Z,101487.75
2022-10-05T01:25:03.647Z,101492.75
2022-10-05T01:28:11.465Z,101506.47
2022-10-05T01:31:23.826Z,101508.25
2022-10-05T01:34:36.837Z,101493.09
2022-10-05T01:37:50.097Z,101498.81
2022-10-05T01:40:59.989Z,101494.31
2022-10-05T01:44:08.314Z,101499.56
2022-10-05T01:47:20.045Z,101489.16
2022-10-05T01:50:31.605Z,101498.63
2022-10-05T01:53:46.755Z,101504.09
2022-10-05T01:56:56.634Z,101513.53
2022-10-05T02:00:07.662Z,101517.47
2022-10-05T02:03:17.398Z,101519.25
2022-10-05T02:06:24.297Z,101517.47
2022-10-05T02:09:30.407Z,101513.75
2022-10-05T02:12:37.511Z,101515.81
2022-10-05T02:15:45.020Z,101511.00
2022-10-05T02:18:54.027Z,101510.91
2022-10-05T02:22:03.297Z,101513.97
2022-10-05T02:25:10.572Z,101504.81
2022-10-05T02:28:17.645Z,101511.59
2022-10-05T02:31:26.088Z,101517.91
2022-10-05T02:34:30.684Z,101510.63
2022-10-05T02:37:42.199Z,101514.31
2022-10-05T02:40:52.513Z,101499.38
2022-10-05T02:44:06.945Z,101502.13
2022-10-05T02:47:19.695Z,101505.94
2022-10-05T02:50:28.173Z,101504.28
2022-10-05T02:53:38.978Z,101503.66
2022-10-05T02:56:49.015Z,101493.19
2022-10-05T02:59:56.268Z,101493.66
2022-10-05T03:03:07.430Z,101497.22
2022-10-05T03:06:21.031Z,101495.31
2022-10-05T03:09:28.183Z,101496.75
2022-10-05T03:12:53.831Z,101481.16
2022-10-05T03:16:09.029Z,101481.16
2022-10-05T03:19:30.803Z,101478.16
2022-10-05T03:22:47.967Z,101482.22
2022-10-05T03:26:06.053Z,101477.09
2022-10-05T03:29:21.883Z,101467.78
2022-10-05T03:32:33.255Z,101464.81
2022-10-05T03:35:49.953Z,101457.81
2022-10-05T03:39:01.921Z,101452.91
2022-10-05T03:42:11.374Z,101455.28
2022-10-05T03:45:24.765Z,101453.63
2022-10-05T03:48:32.035Z,101448.03
2022-10-05T03:51:39.256Z,101450.31
2022-10-05T03:54:47.892Z,101430.88
2022-10-05T03:57:53.423Z,101436.09
2022-10-05T04:01:02.980Z,101437.91
2022-10-05T04:04:12.489Z,101441.34
2022-10-05T04:07:29.022Z,101440.75
2022-10-05T04:10:40.879Z,101432.03
2022-10-05T04:13:50.134Z,101431.22
2022-10-05T04:16:56.219Z,101429.53
2022-10-05T04:20:04.212Z,101428.72
2022-10-05T04:23:18.547Z,101439.09
2022-10-05T04:26:31.251Z,101434.69
2022-10-05T04:29:39.455Z,101433.03
2022-10-05T04:32:44.286Z,101436.34
2022-10-05T04:36:12.906Z,101442.19
2022-10-05T04:39:24.782Z,101447.69
2022-10-05T04:42:34.041Z,101443.03
2022-10-05T04:45:50.531Z,101454.00
2022-10-05T04:49:15.186Z,101440.03
2022-10-05T04:52:26.012Z,101441.13
2022-10-05T04:55:37.357Z,101444.34
2022-10-05T04:58:54.836Z,101435.28
2022-10-05T05:02:06.746Z,101434.09
2022-10-05T05:05:24.048Z,101429.53
2022-10-05T05:08:46.091Z,101435.03
2022-10-05T05:12:03.940Z,101433.94
2022-10-05T05:15:29.868Z,101440.28
2022-10-05T05:18:50.241Z,101443.94
2022-10-05T05:22:01.106Z,101440.16
2022-10-05T05:25:26.679Z,101428.94
2022-10-05T05:28:40.868Z,101426.88
2022-10-05T05:31:49.018Z,101414.22
2022-10-05T05:35:15.354Z,101413.63
2022-10-05T05:38:30.953Z,101402.88
2022-10-05T05:41:38.731Z,101409.88
2022-10-05T05:44:47.189Z,101404.84
2022-10-05T05:47:53.852Z,101419.53
2022-10-05T05:51:00.779Z,101417.38
2022-10-05T05:54:19.683Z,101403.81
2022-10-05T05:57:28.873Z,101413.97
2022-10-05T06:00:37.645Z,101415.41
2022-10-05T06:03:47.344Z,101408.59
2022-10-05T06:06:53.583Z,101416.06
2022-10-05T06:10:02.560Z,101410.84
2022-10-05T06:13:11.483Z,101404.44
2022-10-05T06:16:22.194Z,101413.84
2022-10-05T06:19:27.337Z,101416.28
2022-10-05T06:22:35.480Z,101419.88
2022-10-05T06:25:45.658Z,101422.81
2022-10-05T06:28:53.574Z,101422.72
2022-10-05T06:32:07.108Z,101425.75
2022-10-05T06:35:21.935Z,101437.97
2022-10-05T06:38:54.539Z,101437.88
2022-10-05T06:42:11.150Z,101435.06
2022-10-05T06:45:21.866Z,101436.06
2022-10-05T06:48:42.232Z,101421.38
2022-10-05T06:51:52.654Z,101436.03
2022-10-05T06:55:14.526Z,101420.31
2022-10-05T06:58:37.347Z,101428.22
2022-10-05T07:01:51.245Z,101433.34
2022-10-05T07:05:20.312Z,101423.69
2022-10-05T07:08:34.946Z,101430.56
2022-10-05T07:12:04.894Z,101432.19
2022-10-05T07:15:25.633Z,101441.69
2022-10-05T07:18:57.422Z,101431.66
2022-10-05T07:22:29.313Z,101433.41
2022-10-05T07:25:47.567Z,101447.53
2022-10-05T07:29:12.806Z,101433.44
2022-10-05T07:32:27.844Z,101442.53
2022-10-05T07:35:59.496Z,101458.19
2022-10-05T07:39:09.601Z,101459.66
2022-10-05T07:42:24.284Z,101457.16
2022-10-05T07:45:33.955Z,101447.72
2022-10-05T07:48:52.195Z,101461.25
2022-10-05T07:51:58.333Z,101456.84
2022-10-05T07:55:06.782Z,101454.06
2022-10-05T07:58:17.910Z,101469.78
2022-10-05T08:01:27.124Z,101454.59
2022-10-05T08:04:41.880Z,101450.47
2022-10-05T08:07:45.037Z,101451.31
2022-10-05T08:10:56.886Z,101435.06
2022-10-05T08:14:06.194Z,101421.59
2022-10-05T08:17:14.440Z,101426.63
2022-10-05T08:20:30.803Z,101424.72
2022-10-05T08:23:39.130Z,101423.09
2022-10-05T08:26:51.156Z,101419.56
2022-10-05T08:29:58.082Z,101404.06
2022-10-05T08:33:09.541Z,101394.97
2022-10-05T08:36:15.488Z,101394.41
2022-10-05T08:39:21.501Z,101389.19
2022-10-05T08:42:53.041Z,101403.88
2022-10-05T08:46:13.980Z,101390.84
2022-10-05T08:49:56.247Z,101394.44
2022-10-05T08:53:20.747Z,101386.44
2022-10-05T08:56:42.025Z,101377.03
2022-10-05T09:00:04.189Z,101378.94
2022-10-05T09:03:28.943Z,101376.13
2022-10-05T09:07:08.799Z,101385.28
2022-10-05T09:10:48.707Z,101384.06
2022-10-05T09:14:15.363Z,101390.16
2022-10-05T09:17:50.191Z,101384.13
2022-10-05T09:20:54.161Z,101375.28
2022-10-05T09:24:11.600Z,101376.63
2022-10-05T09:27:17.126Z,101368.41
2022-10-05T09:30:43.933Z,101372.78
2022-10-05T09:34:21.112Z,101374.34
2022-10-05T09:37:55.249Z,101366.78
2022-10-05T09:41:32.679Z,101360.91
2022-10-05T09:45:03.630Z,101352.94
2022-10-05T09:48:41.793Z,101346.81
2022-10-05T09:52:11.569Z,101350.66
2022-10-05T09:55:34.312Z,101341.13
2022-10-05T09:59:13.319Z,101337.25
2022-10-05T10:02:38.793Z,101336.69
2022-10-05T10:06:02.408Z,101336.88
2022-10-05T10:09:22.343Z,101333.31
2022-10-05T10:12:38.385Z,101334.28
2022-10-05T10:16:19.423Z,101349.97
2022-10-05T10:20:03.028Z,101360.63
2022-10-05T10:23:24.281Z,101353.44
2022-10-05T10:27:12.611Z,101360.00
2022-10-05T10:30:51.873Z,101359.53
2022-10-05T10:34:07.233Z,101367.19
2022-10-05T10:37:34.754Z,101371.41
2022-10-05T10:40:55.568Z,101362.22
2022-10-05T10:44:47.228Z,101349.38
2022-10-05T10:48:00.239Z,101348.78
2022-10-05T10:51:18.448Z,101353.97
2022-10-05T10:54:49.475Z,101337.88
2022-10-05T10:58:16.376Z,101355.94
2022-10-05T11:01:31.863Z,101341.88
2022-10-05T11:05:04.521Z,101333.44
2022-10-05T11:08:35.463Z,101336.88
2022-10-05T11:12:12.757Z,101328.72
2022-10-05T11:15:36.639Z,101323.91
2022-10-05T11:19:04.114Z,101324.34
2022-10-05T11:22:19.145Z,101312.72
2022-10-05T11:25:54.013Z,101311.38
2022-10-05T11:29:35.173Z,101308.06
2022-10-05T11:33:04.193Z,101307.72
2022-10-05T11:36:55.354Z,101303.19
2022-10-05T11:40:29.370Z,101306.31
2022-10-05T11:43:53.027Z,101307.09
2022-10-05T11:47:03.873Z,101296.38
2022-10-05T11:50:20.824Z,101293.00
2022-10-05T11:53:28.998Z,101290.31
2022-10-05T11:56:39.518Z,101291.44
2022-10-05T11:59:49.251Z,101288.44
2022-10-05T12:03:09.316Z,101276.22
2022-10-05T12:06:22.377Z,101271.13
2022-10-05T12:10:03.577Z,101267.81
2022-10-05T12:13:19.326Z,101260.25
2022-10-05T12:16:26.864Z,101263.22
2022-10-05T12:19:37.238Z,101260.69
2022-10-05T12:22:45.149Z,101256.31
2022-10-05T12:25:54.634Z,101252.97
2022-10-05T12:29:07.802Z,101250.19
2022-10-05T12:32:21.386Z,101250.13
2022-10-05T12:35:47.428Z,101243.88
2022-10-05T12:38:59.098Z,101237.81
2022-10-05T12:42:15.874Z,101237.63
2022-10-05T12:45:28.928Z,101234.00
2022-10-05T12:49:23.116Z,101225.75
2022-10-05T12:52:43.426Z,101227.66
2022-10-05T12:55:54.265Z,101219.84
2022-10-05T12:59:05.540Z,101225.25
2022-10-05T13:02:20.045Z,101230.94
2022-10-05T13:05:32.730Z,101215.28
2022-10-05T13:08:45.920Z,101225.06
2022-10-05T13:11:51.718Z,101221.94
2022-10-05T13:15:00.719Z,101230.56
2022-10-05T13:18:18.360Z,101224.28
2022-10-05T13:21:27.782Z,101217.63
2022-10-05T13:24:37.094Z,101220.63
2022-10-05T13:27:45.138Z,101212.94
2022-10-05T13:31:02.837Z,101215.72
2022-10-05T13:34:18.945Z,101208.69
2022-10-05T13:37:32.037Z,101211.00
2022-10-05T13:40:39.119Z,101211.19
2022-10-05T13:43:50.443Z,101212.22
2022-10-05T13:47:01.317Z,101206.69
2022-10-05T13:50:15.704Z,101203.97
2022-10-05T13:53:24.326Z,101195.75
2022-10-05T13:56:31.660Z,101194.19
2022-10-05T13:59:39.057Z,101200.59
2022-10-05T14:02:44.639Z,101183.41
2022-10-05T14:05:57.368Z,101193.41
2022-10-05T14:09:00.196Z,101194.06
2022-10-05T14:12:20.289Z,101180.72
2022-10-05T14:15:29.353Z,101183.94
2022-10-05T14:18:34.148Z,101182.38
2022-10-05T14:21:50.847Z,101183.94
2022-10-05T14:24:56.732Z,101173.75
2022-10-05T14:28:11.222Z,101180.31
2022-10-05T14:31:16.657Z,101171.31
2022-10-05T14:34:34.829Z,101163.84
2022-10-05T14:37:50.341Z,101164.38
2022-10-05T14:41:19.039Z,101150.69
2022-10-05T14:44:29.896Z,101155.53
2022-10-05T14:47:34.398Z,101148.03
2022-10-05T14:50:52.172Z,101150.56
2022-10-05T14:54:00.257Z,101147.06
2022-10-05T14:57:18.015Z,101154.88
2022-10-05T15:00:21.253Z,101148.28
2022-10-05T15:03:36.800Z,101152.88
2022-10-05T15:06:42.737Z,101141.56
2022-10-05T15:10:15.770Z,101147.00
2022-10-05T15:13:21.411Z,101152.06
2022-10-05T15:16:28.790Z,101139.06
2022-10-05T15:19:44.933Z,101142.59
2022-10-05T15:22:55.199Z,101139.81
2022-10-05T15:26:13.826Z,101140.63
2022-10-05T15:29:29.391Z,101136.75
2022-10-05T15:32:44.239Z,101136.66
2022-10-05T15:36:00.558Z,101140.84
2022-10-05T15:39:12.188Z,101142.16
2022-10-05T15:42:19.003Z,101150.59
2022-10-05T15:45:25.296Z,101138.94
2022-10-05T15:48:41.078Z,101149.06
2022-10-05T15:51:56.501Z,101132.88
2022-10-05T15:55:24.253Z,101138.97
2022-10-05T15:58:43.160Z,101136.69
2022-10-05T16:01:53.029Z,101138.75
2022-10-05T16:05:07.441Z,101136.72
2022-10-05T16:08:44.691Z,101127.03
2022-10-05T16:12:12.026Z,101131.13
2022-10-05T16:15:26.169Z,101130.97
2022-10-05T16:18:45.700Z,101132.66
2022-10-05T16:22:02.567Z,101126.94
2022-10-05T16:25:14.615Z,101132.81
2022-10-05T16:28:29.762Z,101126.13
2022-10-05T16:31:43.833Z,101124.47
2022-10-05T16:35:02.232Z,101128.38
2022-10-05T16:38:16.293Z,101117.97
2022-10-05T16:41:28.477Z,101122.22
2022-10-05T16:44:41.525Z,101120.34
2022-10-05T16:47:51.136Z,101126.41
2022-10-05T16:51:08.521Z,101120.22
2022-10-05T16:54:19.969Z,101130.06
2022-10-05T16:57:26.448Z,101135.75
2022-10-05T17:00:37.481Z,101126.09
2022-10-05T17:04:06.821Z,101133.00
2022-10-05T17:07:39.414Z,101140.25
2022-10-05T17:10:57.848Z,101143.41
2022-10-05T17:14:17.843Z,101133.38
2022-10-05T17:17:39.259Z,101143.72
2022-10-05T17:20:49.876Z,101141.34
2022-10-05T17:23:55.489Z,101145.53
2022-10-05T17:27:03.186Z,101148.09
2022-10-05T17:30:36.652Z,101137.94
2022-10-05T17:34:29.373Z,101146.00
2022-10-05T17:37:41.757Z,101143.88
2022-10-05T17:41:20.467Z,101149.72
2022-10-05T17:44:26.929Z,101157.78
2022-10-05T17:47:56.756Z,101148.44
2022-10-05T17:51:17.651Z,101140.44
2022-10-05T17:54:41.898Z,101136.34
2022-10-05T17:57:44.805Z,101141.09
2022-10-05T18:01:14.382Z,101135.28
2022-10-05T18:04:38.880Z,101137.81
2022-10-05T18:07:47.825Z,101139.78
2022-10-05T18:11:17.308Z,101132.03
2022-10-05T18:14:54.247Z,101139.50
2022-10-05T18:18:21.192Z,101134.28
2022-10-05T18:21:39.705Z,101138.69
2022-10-05T18:24:56.164Z,101127.66
2022-10-05T18:28:24.937Z,101131.81
2022-10-05T18:31:46.569Z,101126.25
2022-10-05T18:35:02.011Z,101126.81
2022-10-05T18:38:21.903Z,101135.38
2022-10-05T18:41:45.612Z,101123.19
2022-10-05T18:44:53.373Z,101130.66
2022-10-05T18:48:10.363Z,101126.50
2022-10-05T18:51:24.257Z,101127.06
2022-10-05T18:54:42.420Z,101129.28
2022-10-05T18:57:54.533Z,101121.84
2022-10-05T19:01:17.567Z,101123.22
2022-10-05T19:04:28.953Z,101125.94
2022-10-05T19:07:44.811Z,101127.88
2022-10-05T19:10:55.198Z,101135.06
2022-10-05T19:14:06.048Z,101132.03
2022-10-05T19:17:25.833Z,101145.59
2022-10-05T19:20:35.617Z,101149.41
2022-10-05T19:23:58.358Z,101159.09
2022-10-05T19:27:07.802Z,101166.84
2022-10-05T19:30:21.109Z,101166.28
2022-10-05T19:33:42.575Z,101166.00
2022-10-05T19:36:55.533Z,101166.81
2022-10-05T19:40:07.223Z,101172.91
2022-10-05T19:43:27.438Z,101177.34
2022-10-05T19:46:47.407Z,101183.94
2022-10-05T19:50:00.176Z,101187.03
2022-10-05T19:53:12.287Z,101179.28
2022-10-05T19:56:20.607Z,101193.91
2022-10-05T19:59:27.568Z,101193.63
2022-10-05T20:02:33.055Z,101190.31
2022-10-05T20:05:37.220Z,101195.84
2022-10-05T20:08:41.904Z,101200.28
2022-10-05T20:11:50.581Z,101206.34
2022-10-05T20:15:26.657Z,101206.63
2022-10-05T20:18:58.725Z,101213.25
2022-10-05T20:22:27.251Z,101211.03
2022-10-05T20:25:31.987Z,101218.19
2022-10-05T20:28:34.665Z,101222.94
2022-10-05T20:31:37.386Z,101232.88
2022-10-05T20:34:42.022Z,101235.59
2022-10-05T20:37:45.954Z,101241.38
2022-10-05T20:40:48.877Z,101235.59
2022-10-05T20:43:51.455Z,101237.81
2022-10-05T20:46:55.674Z,101246.66
2022-10-05T20:49:58.380Z,101254.94
2022-10-05T20:53:02.251Z,101257.69
2022-10-05T20:56:05.032Z,101251.06
2022-10-05T20:59:07.577Z,101257.16
2022-10-05T21:02:10.593Z,101262.94
2022-10-05T21:05:13.366Z,101264.63
2022-10-05T21:08:17.834Z,101262.44
2022-10-05T21:11:20.565Z,101258.00
2022-10-05T21:14:23.715Z,101261.31
2022-10-05T21:17:26.434Z,101265.19
2022-10-05T21:20:28.964Z,101265.50
2022-10-05T21:23:33.645Z,101271.53
2022-10-05T21:26:37.447Z,101278.47
2022-10-05T21:29:41.317Z,101271.59
2022-10-05T21:32:44.760Z,101274.34
2022-10-05T21:35:47.612Z,101280.97
2022-10-05T21:38:52.654Z,101274.88
2022-10-05T21:41:55.173Z,101274.59
2022-10-05T21:44:57.851Z,101285.94
2022-10-05T21:48:00.630Z,101291.72
2022-10-05T21:51:03.724Z,101288.69
2022-10-05T21:54:12.654Z,101274.31
2022-10-05T21:57:15.491Z,101288.16
2022-10-05T22:00:18.641Z,101286.50
2022-10-05T22:03:21.526Z,101290.34
2022-10-05T22:06:24.234Z,101290.34
2022-10-05T22:09:28.276Z,101296.16
2022-10-05T22:12:31.040Z,101293.41
2022-10-05T22:15:33.737Z,101292.84
2022-10-05T22:18:36.333Z,101292.59
2022-10-05T22:21:41.791Z,101298.38
2022-10-05T22:24:46.029Z,101296.72
2022-10-05T22:27:50.012Z,101300.31
2022-10-05T22:30:52.755Z,101296.72
2022-10-05T22:33:55.354Z,101307.72
2022-10-05T22:36:58.084Z,101317.06
2022-10-05T22:40:02.066Z,101304.66
2022-10-05T22:43:04.782Z,101312.38
2022-10-05T22:46:11.982Z,101309.34
2022-10-05T22:49:14.911Z,101315.38
2022-10-05T22:52:17.626Z,101315.91
2022-10-05T22:55:21.629Z,101320.34
2022-10-05T22:58:24.747Z,101321.44
2022-10-05T23:01:28.122Z,101323.38
2022-10-05T23:04:31.042Z,101327.78
2022-10-05T23:07:36.871Z,101332.47
2022-10-05T23:10:40.907Z,101331.47
2022-10-05T23:13:43.588Z,101334.97
2022-10-05T23:16:46.372Z,101335.00
2022-10-05T23:19:49.098Z,101342.75
2022-10-05T23:22:51.683Z,101342.69
2022-10-05T23:26:00.582Z,101341.91
2022-10-05T23:29:03.182Z,101346.34
2022-10-05T23:32:06.088Z,101354.13
2022-10-05T23:35:10.223Z,101353.63
2022-10-05T23:38:12.902Z,101356.06
2022-10-05T23:41:17.327Z,101365.19
2022-10-05T23:44:20.054Z,101358.53
2022-10-05T23:47:22.759Z,101358.53
2022-10-05T23:50:26.952Z,101364.91
2022-10-05T23:53:29.770Z,101373.47
2022-10-05T23:56:33.964Z,101363.81
2022-10-05T23:59:36.945Z,101364.63
